Newport, KY (41071)

11:58 PM EST on February 11, 2016 (GMT -0500)
RMR -- Newport | | Change Station
CLOSE
Current Station
Personal Weather Station
Location: Newport, KY
Elevation: 499 ft
Nearby Weather Stations

Elev 499 ft 39.08 °N, 84.50 °W | Updated 8 minutes ago

Partly Cloudy
Partly Cloudy
20.4 °F
Feels Like 20 °F
N
0.0
Wind Variable Wind from ESE
Gusts 0.0 mph

Today
High -- | Low -- °F
--% Chance of Precip.
Yesterday
High -- | Low -- °F
Precip. -- in
Pressure 30.34 in
Visibility 10.0 miles
Clouds Few 11000 ft
Windchill 20 °F
Dew Point 12 °F
Humidity 69%
Rainfall 0.00 in
Snow Depth Not available.
7:34 AM 6:10 PM
Waxing Crescent, 17% visible
METAR KLUK 120453Z AUTO 00000KT 10SM FEW110 M08/M11 A3031 RMK AO2 SLP272 T10781111 410331100
Pressure 30.34 in
Visibility 10.0 miles
Clouds Few 11000 ft
Windchill 20 °F
Dew Point 12 °F
Humidity 69%
Rainfall 0.00 in
Snow Depth Not available.
7:34 AM 6:10 PM
Waxing Crescent, 17% visible
METAR KLUK 120453Z AUTO 00000KT 10SM FEW110 M08/M11 A3031 RMK AO2 SLP272 T10781111 410331100

10-Day Weather Forecast

Almanac

Astronomy

Feb. 11, 2016 Rise Set
Actual Time
Civil Twilight
Nautical Twilight
Astronomical Twilight
Moon
Length of Visible Light
Length of Day
Tomorrow will be .
, % of the Moon is Illuminated

Today's Extremes

State Highs State Lows

Community

WunderPhotos

Upload Photos

1,892,268 photos uploaded!

WunderBlog® & News

Nearby

Air Quality

  Air Quality AQ Index Pollutant
Not available.

Snow Depth

Station Depth Elevation

Earthquake Activity

City Distance Mag. Time & Date
Minimum magnitude displayed is 2.5.

Coastal Water Temperatures

Place Temperature

Stations

Nearby Weather Stations

Station Location Temp. Windchill Dew Point Humidity Wind Precip. Elev Updated Type
                   

Watches & Warnings

There are currently no watches in effect.